Time;durP1;ratioP1;P1;durP2;ratioP2;P2;SDS_P1;SDS_P2;PMS_P1;PMS_P2;Temp;Humidity;BMP_temperature;BMP_pressure;BME280_temperature;BME280_humidity;BME280_pressure;Samples;Min_cycle;Max_cycle;Signal;HPM_P1;HPM_P2
2022/12/24 00:03:45;;;;;;;;;;;10.40;99.90;;;9.34;100.00;95113.94;10558360;27;2090;-77
2022/12/24 00:08:49;;;;;;;;;;;10.40;99.90;;;9.38;100.00;95131.06;10588974;27;1968;-76
2022/12/24 00:13:53;;;;;;;;;;;10.30;99.90;;;9.27;100.00;95142.97;10574330;27;2142;-75
2022/12/24 00:18:58;;;;;;;;;;;10.30;99.90;;;9.34;100.00;95143.44;10578791;27;2068;-77
2022/12/24 00:24:05;;;;;;;;;;;10.20;99.90;;;9.50;100.00;95155.66;10570025;27;1942;-76
2022/12/24 00:29:14;;;;;;;;;;;10.40;99.90;;;9.64;100.00;95145.84;10589682;27;5017;-76
2022/12/24 00:34:27;;;;;;;;;;;10.50;99.90;;;9.67;100.00;95145.31;10585338;27;1934;-76
2022/12/24 00:39:30;;;;;;;;;;;10.60;99.90;;;9.67;100.00;95156.03;10580724;27;2111;-77
2022/12/24 00:44:35;;;;;;;;;;;10.70;99.90;;;9.69;100.00;95174.53;10589578;27;2012;-76
2022/12/24 00:49:51;;;;;;;;;;;10.70;99.90;;;9.64;100.00;95196.03;10555649;28;2042;-76
2022/12/24 00:55:00;;;;;;;;;;;10.60;99.90;;;9.64;100.00;95194.16;10550588;28;2097;-78
2022/12/24 01:00:03;;;;;;;;;;;10.50;99.90;;;9.54;100.00;95201.47;10562309;28;2081;-77
2022/12/24 01:05:11;;;;;;;;;;;10.50;99.90;;;9.49;100.00;95194.28;10566242;28;2006;-76
2022/12/24 01:10:17;;;;;;;;;;;10.50;99.90;;;9.31;100.00;95216.41;10565374;28;1925;-76
2022/12/24 01:15:25;;;;;;;;;;;10.50;99.90;;;9.18;100.00;95223.22;10568023;28;2118;-77
2022/12/24 01:20:34;;;;;;;;;;;10.30;99.90;;;9.01;100.00;95223.56;10548788;28;1977;-75
2022/12/24 01:25:39;;;;;;;;;;;10.20;99.90;;;8.77;100.00;95226.09;10557074;28;2134;-76
2022/12/24 01:30:44;;;;;;;;;;;10.00;99.90;;;9.03;100.00;95226.75;10559359;28;5119;-76
2022/12/24 01:35:47;;;;;;;;;;;10.00;99.90;;;8.97;100.00;95238.63;10559156;28;1933;-77
2022/12/24 01:46:15;;;;;;;;;;;10.00;99.90;;;8.96;100.00;95253.06;10556056;28;1974;-76
2022/12/24 01:51:26;;;;;;;;;;;10.00;99.90;;;8.97;100.00;95265.44;10572231;27;2069;-79
2022/12/24 01:56:31;;;;;;;;;;;10.00;99.90;;;9.04;100.00;95271.28;10578769;27;1886;-80
2022/12/24 02:01:37;;;;;;;;;;;10.00;99.90;;;9.02;100.00;95261.91;10573446;27;2016;-77
2022/12/24 02:06:43;;;;;;;;;;;10.00;99.90;;;9.03;100.00;95276.91;10549321;28;1957;-76
2022/12/24 02:11:53;;;;;;;;;;;10.10;99.90;;;9.00;100.00;95275.59;10564715;27;1969;-77
2022/12/24 02:16:58;;;;;;;;;;;10.00;99.90;;;8.90;100.00;95281.78;10563913;27;2122;-78
2022/12/24 02:22:03;;;;;;;;;;;10.10;99.90;;;8.92;100.00;95276.16;10568489;27;1952;-77
2022/12/24 02:27:08;;;;;;;;;;;10.00;99.90;;;8.97;100.00;95286.03;10569012;27;5027;-76
2022/12/24 02:32:15;;;;;;;;;;;10.00;99.90;;;8.97;100.00;95273.47;10550971;27;2021;-77
2022/12/24 02:37:19;;;;;;;;;;;10.00;99.90;;;8.97;100.00;95292.22;10586718;27;2035;-76
2022/12/24 02:42:27;;;;;;;;;;;10.00;99.90;;;8.98;100.00;95299.19;10565455;27;1901;-77
2022/12/24 02:47:33;;;;;;;;;;;10.00;99.90;;;8.93;100.00;95310.72;10582229;27;2191;-76
2022/12/24 02:52:37;;;;;;;;;;;9.90;99.90;;;8.88;100.00;95312.63;10569098;27;1992;-77
2022/12/24 02:57:42;;;;;;;;;;;9.90;99.90;;;8.86;100.00;95322.81;10574303;27;1969;-77
2022/12/24 03:02:46;;;;;;;;;;;10.00;99.90;;;8.85;100.00;95313.19;10572915;27;1993;-77
2022/12/24 03:07:52;;;;;;;;;;;9.80;99.90;;;8.83;100.00;95307.28;10575663;27;1977;-77
2022/12/24 03:12:56;;;;;;;;;;;9.80;99.90;;;8.85;100.00;95307.81;10573322;27;2036;-76
2022/12/24 03:18:00;;;;;;;;;;;9.80;99.90;;;8.84;100.00;95311.56;10574462;27;2085;-76
2022/12/24 03:23:09;;;;;;;;;;;9.90;99.90;;;8.88;100.00;95321.47;10531172;27;2017;-76
2022/12/24 03:28:13;;;;;;;;;;;9.90;99.90;;;8.88;100.00;95310.75;10568372;27;5097;-76
2022/12/24 03:33:21;;;;;;;;;;;9.90;99.90;;;8.83;100.00;95318.00;10565534;27;1984;-76
2022/12/24 03:38:29;;;;;;;;;;;9.80;99.90;;;8.85;100.00;95322.03;10548444;27;2051;-76
2022/12/24 03:43:46;;;;;;;;;;;9.80;99.90;;;8.91;100.00;95341.56;10571354;27;2101;-79
2022/12/24 03:48:50;;;;;;;;;;;9.90;99.90;;;8.93;100.00;95342.91;10537576;27;2136;-78
2022/12/24 03:53:54;;;;;;;;;;;9.90;99.90;;;9.01;100.00;95340.72;10570877;27;1972;-76
2022/12/24 03:58:58;;;;;;;;;;;10.00;99.90;;;9.01;100.00;95327.31;10569395;27;2032;-75
2022/12/24 04:04:05;;;;;;;;;;;9.90;99.90;;;8.96;100.00;95346.91;10536723;27;2060;-76
2022/12/24 04:09:09;;;;;;;;;;;10.00;99.90;;;8.90;100.00;95356.84;10563371;27;2048;-75
2022/12/24 04:14:16;;;;;;;;;;;10.00;99.90;;;8.90;100.00;95369.44;10565814;27;2076;-76
2022/12/24 04:19:29;;;;;;;;;;;9.90;99.90;;;8.90;100.00;95383.63;10568208;27;1961;-76
2022/12/24 04:24:33;;;;;;;;;;;9.90;99.90;;;8.84;100.00;95383.91;10549860;27;1876;-77
2022/12/24 04:29:42;;;;;;;;;;;9.90;99.90;;;8.90;100.00;95388.19;10576512;27;4997;-78
2022/12/24 04:34:48;;;;;;;;;;;9.80;99.90;;;9.02;100.00;95402.09;10540621;27;1944;-77
2022/12/24 04:40:04;;;;;;;;;;;9.90;99.90;;;9.07;100.00;95398.63;10552727;28;2130;-77
2022/12/24 04:45:09;;;;;;;;;;;10.00;99.90;;;9.14;100.00;95386.53;10553845;28;2002;-77
2022/12/24 04:50:14;;;;;;;;;;;10.00;99.90;;;9.11;100.00;95397.00;10568318;28;2084;-77
2022/12/24 04:55:23;;;;;;;;;;;10.10;99.90;;;9.08;100.00;95403.69;10576033;28;2171;-77
2022/12/24 05:00:37;;;;;;;;;;;9.90;99.90;;;9.00;100.00;95425.72;10581307;27;1979;-77
2022/12/24 05:05:43;;;;;;;;;;;9.90;99.90;;;9.04;100.00;95413.38;10577042;28;1844;-79
2022/12/24 05:10:47;;;;;;;;;;;10.10;99.90;;;9.04;100.00;95418.75;10552042;28;2069;-77
2022/12/24 05:15:49;;;;;;;;;;;10.00;99.90;;;9.01;100.00;95413.09;10541949;28;1930;-76
2022/12/24 05:20:55;;;;;;;;;;;10.00;99.90;;;8.94;100.00;95424.91;10573957;28;1952;-76
2022/12/24 05:31:21;;;;;;;;;;;10.00;99.90;;;8.99;100.00;95426.00;10576484;27;1937;-76
2022/12/24 05:36:25;;;;;;;;;;;10.00;99.90;;;8.97;100.00;95431.63;10575009;27;2116;-76
2022/12/24 05:41:31;;;;;;;;;;;9.90;99.90;;;8.96;100.00;95424.63;10568462;27;1962;-76
2022/12/24 05:46:38;;;;;;;;;;;9.90;99.90;;;8.89;100.00;95443.69;10583913;27;1950;-76
2022/12/24 05:51:43;;;;;;;;;;;9.80;99.90;;;8.87;100.00;95442.38;10590164;27;1988;-76
2022/12/24 05:56:47;;;;;;;;;;;9.80;99.90;;;8.89;100.00;95448.25;10572637;27;1941;-76
2022/12/24 06:02:05;;;;;;;;;;;9.80;99.90;;;8.99;100.00;95444.75;10580541;27;2123;-76
2022/12/24 06:07:09;;;;;;;;;;;9.80;99.90;;;9.05;100.00;95457.09;10570745;27;1934;-76
2022/12/24 06:12:12;;;;;;;;;;;9.90;99.90;;;9.00;100.00;95468.59;10588222;27;1987;-76
2022/12/24 06:17:17;;;;;;;;;;;10.00;99.90;;;8.97;100.00;95482.56;10581528;27;1971;-77
2022/12/24 06:22:20;;;;;;;;;;;9.90;99.90;;;8.96;100.00;95478.25;10571878;27;2009;-77
2022/12/24 06:27:23;;;;;;;;;;;9.90;99.90;;;8.93;100.00;95468.09;10578108;27;5116;-77
2022/12/24 06:32:29;;;;;;;;;;;9.90;99.90;;;8.90;100.00;95480.13;10556839;27;2108;-77
2022/12/24 06:37:36;;;;;;;;;;;;;;;8.81;100.00;95483.66;10549278;27;2002;-76
2022/12/24 06:42:41;;;;;;;;;;;9.80;99.90;;;8.77;100.00;95487.91;10541838;27;2182;-77
2022/12/24 06:47:52;;;;;;;;;;;9.70;99.90;;;8.75;100.00;95492.75;10558284;27;1967;-77
2022/12/24 06:52:57;;;;;;;;;;;9.80;99.90;;;8.74;100.00;95499.19;10575219;27;1974;-76
2022/12/24 06:58:03;;;;;;;;;;;9.70;99.90;;;8.72;100.00;95509.38;10559640;27;2001;-76
2022/12/24 07:03:07;;;;;;;;;;;9.80;99.90;;;8.72;100.00;95515.53;10582788;27;2069;-78
2022/12/24 07:08:12;;;;;;;;;;;9.70;99.90;;;8.61;100.00;95508.56;10587095;27;2085;-76
2022/12/24 07:13:16;;;;;;;;;;;9.70;99.90;;;8.60;100.00;95504.28;10572930;28;1910;-76
2022/12/24 07:18:20;;;;;;;;;;;9.60;99.90;;;8.56;100.00;95514.72;10575257;27;1930;-78
2022/12/24 07:23:24;;;;;;;;;;;9.60;99.90;;;8.60;100.00;95529.19;10550441;27;2073;-77
2022/12/24 07:28:29;;;;;;;;;;;9.60;99.90;;;8.52;100.00;95532.38;10548885;27;5005;-77
2022/12/24 07:33:32;;;;;;;;;;;9.50;99.90;;;8.48;100.00;95547.41;10566317;27;2098;-76
2022/12/24 07:38:37;;;;;;;;;;;9.50;99.90;;;8.46;100.00;95554.06;10539317;27;2189;-77
2022/12/24 07:43:42;;;;;;;;;;;9.40;99.90;;;8.55;100.00;95558.66;10563537;27;2005;-77
2022/12/24 07:48:46;;;;;;;;;;;9.50;99.90;;;8.56;100.00;95560.25;10575660;27;1978;-77
2022/12/24 07:53:51;;;;;;;;;;;9.60;99.90;;;8.54;100.00;95575.00;10552806;28;2066;-77
2022/12/24 07:58:55;;;;;;;;;;;9.50;99.90;;;8.55;100.00;95585.44;10564986;27;1965;-77
2022/12/24 08:04:01;;;;;;;;;;;9.50;99.90;;;8.50;100.00;95587.31;10571810;27;2058;-77
2022/12/24 08:09:13;;;;;;;;;;;9.50;99.90;;;8.58;100.00;95589.47;10580620;27;2163;-77
2022/12/24 08:14:17;;;;;;;;;;;9.50;99.90;;;8.66;100.00;95595.13;10569861;27;1965;-77
2022/12/24 08:19:21;;;;;;;;;;;9.50;99.90;;;8.70;100.00;95614.13;10585141;27;1976;-78
2022/12/24 08:24:30;;;;;;;;;;;9.60;99.90;;;8.77;100.00;95603.16;10569471;27;2170;-77
2022/12/24 08:29:42;;;;;;;;;;;9.70;99.90;;;8.81;100.00;95612.28;10582749;27;5186;-78
2022/12/24 08:34:47;;;;;;;;;;;9.70;99.90;;;8.87;100.00;95622.75;10554686;27;2011;-76
2022/12/24 08:39:51;;;;;;;;;;;9.80;99.90;;;8.88;100.00;95610.97;10576118;27;2025;-77
2022/12/24 08:44:56;;;;;;;;;;;9.80;99.90;;;8.91;100.00;95612.31;10585193;27;1928;-79
2022/12/24 08:50:00;;;;;;;;;;;9.80;99.90;;;8.95;100.00;95621.41;10587520;27;1965;-80
2022/12/24 08:55:09;;;;;;;;;;;9.90;99.90;;;9.10;100.00;95634.06;10585567;28;2064;-77
2022/12/24 09:00:16;;;;;;;;;;;10.00;99.90;;;9.11;100.00;95654.44;10594344;27;1900;-77
2022/12/24 09:05:32;;;;;;;;;;;10.00;99.90;;;9.21;100.00;95663.25;10563355;27;1962;-76
2022/12/24 09:10:39;;;;;;;;;;;10.00;99.90;;;9.23;100.00;95681.00;10599861;27;1953;-77
2022/12/24 09:15:44;;;;;;;;;;;10.00;99.90;;;9.20;100.00;95688.47;10596002;27;1968;-78
2022/12/24 09:20:49;;;;;;;;;;;10.10;99.90;;;9.37;100.00;95698.16;10586560;27;2261;-76
2022/12/24 09:26:00;;;;;;;;;;;10.20;99.90;;;9.47;100.00;95703.50;10571989;27;1919;-77
2022/12/24 09:31:06;;;;;;;;;;;10.20;99.90;;;9.44;100.00;95704.06;10592028;27;5082;-77
2022/12/24 09:36:19;;;;;;;;;;;10.30;99.90;;;9.40;100.00;95690.38;10585989;27;1898;-76
2022/12/24 09:41:24;;;;;;;;;;;10.30;99.90;;;9.43;100.00;95689.84;10573142;27;2092;-76
2022/12/24 09:46:31;;;;;;;;;;;10.40;99.90;;;9.48;100.00;95687.16;10587678;27;1854;-76
2022/12/24 09:51:37;;;;;;;;;;;10.30;99.90;;;9.45;100.00;95673.47;10576976;27;1917;-81
2022/12/24 09:56:43;;;;;;;;;;;10.40;99.90;;;9.49;100.00;95682.59;10568996;27;2168;-76
2022/12/24 10:01:47;;;;;;;;;;;10.40;99.90;;;9.44;100.00;95677.22;10572609;27;1967;-76
2022/12/24 10:06:56;;;;;;;;;;;10.40;99.90;;;9.71;100.00;95664.31;10551216;28;1992;-76
2022/12/24 10:12:00;;;;;;;;;;;10.40;99.90;;;9.71;100.00;95675.06;10592345;27;1988;-76
2022/12/24 10:17:03;;;;;;;;;;;10.50;99.90;;;9.59;100.00;95669.16;10597806;27;2147;-77
2022/12/24 10:22:10;;;;;;;;;;;10.50;99.90;;;9.30;100.00;95685.00;10568190;27;1974;-77
2022/12/24 10:27:16;;;;;;;;;;;10.30;99.90;;;9.23;100.00;95697.09;10584045;27;5048;-77
2022/12/24 10:32:21;;;;;;;;;;;10.30;99.90;;;9.01;100.00;95700.78;10553595;27;2121;-77
2022/12/24 10:37:24;;;;;;;;;;;10.10;99.90;;;9.00;100.00;95699.19;10577194;27;2010;-76
2022/12/24 10:42:27;;;;;;;;;;;10.00;99.90;;;8.92;100.00;95687.09;10551009;27;2157;-75
2022/12/24 10:47:32;;;;;;;;;;;9.90;99.90;;;8.72;100.00;95680.91;10573269;27;1902;-76
2022/12/24 10:52:37;;;;;;;;;;;9.80;99.90;;;8.63;100.00;95694.78;10576368;27;2005;-76
2022/12/24 10:57:42;;;;;;;;;;;9.70;99.90;;;8.65;100.00;95700.72;10584525;27;1985;-77
2022/12/24 11:02:50;;;;;;;;;;;9.70;99.90;;;8.58;100.00;95702.78;10580909;27;2109;-77
2022/12/24 11:07:55;;;;;;;;;;;9.60;99.90;;;8.62;100.00;95700.41;10561771;27;2007;-77
2022/12/24 11:13:00;;;;;;;;;;;9.60;99.90;;;8.75;100.00;95697.22;10574306;27;2107;-77
2022/12/24 11:18:23;;;;;;;;;;;9.60;99.90;;;8.80;100.00;95691.91;10562978;27;2057;-77
2022/12/24 11:23:27;;;;;;;;;;;9.70;99.90;;;8.99;100.00;95691.41;10566662;27;2155;-77
2022/12/24 11:28:34;;;;;;;;;;;9.90;99.90;;;9.04;100.00;95688.75;10548440;27;4997;-79
2022/12/24 11:33:38;;;;;;;;;;;9.90;99.90;;;9.04;100.00;95678.81;10553179;27;1999;-75
2022/12/24 11:38:41;;;;;;;;;;;10.00;99.90;;;9.04;100.00;95683.38;10561097;27;1836;-76
2022/12/24 11:43:47;;;;;;;;;;;9.90;99.90;;;8.99;100.00;95681.50;10588001;27;1953;-77
2022/12/24 11:48:51;;;;;;;;;;;10.00;99.90;;;9.08;100.00;95669.16;10551799;27;1994;-76
2022/12/24 11:53:59;;;;;;;;;;;10.00;99.90;;;9.26;100.00;95675.06;10582865;27;1917;-76
2022/12/24 11:59:04;;;;;;;;;;;10.20;99.90;;;9.30;100.00;95681.53;10550389;27;2013;-76
2022/12/24 12:04:08;;;;;;;;;;;10.20;99.90;;;9.23;100.00;95681.78;10557175;27;2014;-76
2022/12/24 12:09:15;;;;;;;;;;;10.20;99.90;;;9.14;100.00;95689.53;10574387;27;2184;-77
2022/12/24 12:14:21;;;;;;;;;;;10.10;99.90;;;9.13;100.00;95687.94;10576712;27;1992;-76
2022/12/24 12:19:30;;;;;;;;;;;10.10;99.90;;;9.04;100.00;95691.41;10546009;28;2085;-77
2022/12/24 12:24:34;;;;;;;;;;;10.00;99.90;;;8.88;100.00;95690.56;10581837;27;1898;-76
2022/12/24 12:29:40;;;;;;;;;;;9.90;99.90;;;8.77;100.00;95686.25;10575862;27;4910;-76
2022/12/24 12:34:45;;;;;;;;;;;9.80;99.90;;;8.72;100.00;95696.97;10569204;27;2014;-77
2022/12/24 12:39:57;;;;;;;;;;;9.80;99.90;;;8.65;100.00;95686.47;10556098;28;2050;-77
2022/12/24 12:45:03;;;;;;;;;;;9.90;99.90;;;8.61;100.00;95706.84;10546397;27;1929;-77
2022/12/24 12:50:10;;;;;;;;;;;9.70;99.90;;;8.61;100.00;95704.97;10538412;27;1930;-77
2022/12/24 12:55:16;;;;;;;;;;;9.50;99.90;;;8.64;100.00;95717.81;10571102;28;1930;-76
2022/12/24 13:00:26;;;;;;;;;;;9.60;99.90;;;8.62;100.00;95719.97;10578181;27;1916;-77
2022/12/24 13:05:30;;;;;;;;;;;9.60;99.90;;;8.69;100.00;95716.25;10554335;28;2182;-77
2022/12/24 13:10:35;;;;;;;;;;;9.60;99.90;;;8.73;100.00;95701.25;10561923;28;1941;-76
2022/12/24 13:15:39;;;;;;;;;;;9.60;99.90;;;8.64;100.00;95712.47;10551424;28;1936;-78
2022/12/24 13:20:42;;;;;;;;;;;9.70;99.90;;;8.78;100.00;95712.81;10583535;27;1914;-77
2022/12/24 13:25:48;;;;;;;;;;;9.70;99.90;;;8.85;100.00;95720.59;10572579;28;1989;-77
2022/12/24 13:30:54;;;;;;;;;;;9.80;99.90;;;8.84;100.00;95727.00;10573531;28;4910;-77
2022/12/24 13:36:01;;;;;;;;;;;9.80;99.90;;;8.83;100.00;95736.91;10553777;28;1985;-77
2022/12/24 13:41:06;;;;;;;;;;;9.80;99.90;;;8.86;100.00;95746.31;10574814;28;1902;-76
2022/12/24 13:46:17;;;;;;;;;;;9.80;99.90;;;8.69;100.00;95733.13;10584756;27;1910;-77
2022/12/24 13:51:22;;;;;;;;;;;9.80;99.90;;;8.63;100.00;95748.38;10584092;27;1897;-77
2022/12/24 13:56:39;;;;;;;;;;;9.60;99.90;;;8.67;100.00;95737.94;10582514;27;1977;-77
2022/12/24 14:01:46;;;;;;;;;;;9.60;99.90;;;8.65;100.00;95751.63;10561806;28;2074;-77
2022/12/24 14:06:56;;;;;;;;;;;9.70;99.90;;;8.61;100.00;95747.84;10575445;27;1906;-78
2022/12/24 14:12:01;;;;;;;;;;;9.60;99.90;;;8.51;100.00;95761.16;10587314;27;1985;-76
2022/12/24 14:17:05;;;;;;;;;;;9.60;99.90;;;8.43;100.00;95764.34;10584217;27;1922;-75
2022/12/24 14:22:13;;;;;;;;;;;9.50;99.90;;;8.39;100.00;95752.53;10574587;27;1964;-75
2022/12/24 14:27:18;;;;;;;;;;;9.40;99.90;;;8.51;100.00;95763.84;10599782;27;5017;-76
2022/12/24 14:32:26;;;;;;;;;;;9.40;99.90;;;8.59;100.00;95762.56;10580784;27;1914;-76
2022/12/24 14:37:32;;;;;;;;;;;9.50;99.90;;;8.67;100.00;95764.75;10565753;27;1969;-76
2022/12/24 14:42:37;;;;;;;;;;;9.50;99.90;;;8.66;100.00;95780.03;10563903;27;1957;-77
2022/12/24 14:47:42;;;;;;;;;;;9.60;99.90;;;8.53;100.00;95783.19;10583728;27;2131;-76
2022/12/24 14:52:47;;;;;;;;;;;9.60;99.90;;;8.34;100.00;95787.31;10573397;27;2033;-77
2022/12/24 14:58:11;;;;;;;;;;;9.40;99.90;;;8.15;100.00;95794.16;10596061;27;2231;-78
2022/12/24 15:03:17;;;;;;;;;;;9.30;99.90;;;7.99;100.00;95812.78;10565801;27;2020;-77
2022/12/24 15:08:21;;;;;;;;;;;9.20;99.90;;;7.81;100.00;95805.94;10571725;27;2020;-77
2022/12/24 15:13:25;;;;;;;;;;;9.00;99.90;;;7.69;100.00;95807.16;10571715;27;1986;-77
2022/12/24 15:18:30;;;;;;;;;;;8.80;99.90;;;7.61;100.00;95804.94;10588507;27;1924;-77
2022/12/24 15:23:36;;;;;;;;;;;8.80;99.90;;;7.53;100.00;95801.69;10568314;27;2005;-76
2022/12/24 15:28:43;;;;;;;;;;;8.60;99.90;;;7.47;100.00;95799.22;10589767;27;5025;-77
2022/12/24 15:33:46;;;;;;;;;;;8.60;99.90;;;7.52;100.00;95797.41;10567717;27;2095;-76
2022/12/24 15:38:51;;;;;;;;;;;8.50;99.90;;;7.46;100.00;95790.38;10582467;27;1827;-76
2022/12/24 15:43:54;;;;;;;;;;;8.60;99.90;;;7.46;100.00;95789.59;10561454;27;2019;-76
2022/12/24 15:48:58;;;;;;;;;;;8.50;99.90;;;7.51;100.00;95800.34;10577634;27;1938;-76
2022/12/24 15:54:05;;;;;;;;;;;8.50;99.90;;;7.46;100.00;95809.09;10568349;27;2243;-78
2022/12/24 15:59:20;;;;;;;;;;;8.50;99.90;;;7.52;100.00;95808.09;10572724;27;1884;-77
2022/12/24 16:04:27;;;;;;;;;;;8.50;99.90;;;7.49;100.00;95819.28;10544014;27;1852;-77
2022/12/24 16:09:35;;;;;;;;;;;8.20;99.90;;;7.55;100.00;95817.47;10581231;27;1799;-78
2022/12/24 16:14:41;;;;;;;;;;;8.50;99.90;;;7.61;100.00;95816.47;10574843;27;2043;-76
2022/12/24 16:19:46;;;;;;;;;;;8.50;99.90;;;7.63;100.00;95803.63;10588407;27;1929;-76
2022/12/24 16:24:51;;;;;;;;;;;8.60;99.90;;;7.49;100.00;95813.94;10552038;27;2037;-76
2022/12/24 16:29:59;;;;;;;;;;;8.60;99.90;;;7.56;100.00;95829.78;10556155;27;5077;-77
2022/12/24 16:35:03;;;;;;;;;;;8.50;99.90;;;7.53;100.00;95825.75;10580860;27;1959;-77
2022/12/24 16:40:07;;;;;;;;;;;8.50;99.90;;;7.54;100.00;95822.00;10555651;27;1967;-77
2022/12/24 16:45:22;;;;;;;;;;;8.60;99.90;;;7.51;100.00;95816.38;10579339;27;1930;-76
2022/12/24 16:50:27;;;;;;;;;;;8.50;99.90;;;7.45;100.00;95833.44;10590732;27;2043;-76
2022/12/24 16:55:32;;;;;;;;;;;8.40;99.90;;;7.52;100.00;95829.50;10572928;28;2036;-77
2022/12/24 17:00:37;;;;;;;;;;;8.50;99.90;;;7.49;100.00;95830.00;10552685;28;2167;-77
2022/12/24 17:05:45;;;;;;;;;;;8.50;99.90;;;7.52;100.00;95840.19;10568807;28;2100;-77
2022/12/24 17:10:59;;;;;;;;;;;8.40;99.90;;;7.62;100.00;95838.66;10564491;28;2001;-77
2022/12/24 17:16:03;;;;;;;;;;;8.50;99.90;;;7.69;100.00;95833.91;10586206;28;2001;-76
2022/12/24 17:21:09;;;;;;;;;;;8.60;99.90;;;7.70;100.00;95831.00;10553408;27;1948;-77
2022/12/24 17:26:12;;;;;;;;;;;8.60;99.90;;;7.67;100.00;95828.81;10565244;27;2136;-76
2022/12/24 17:31:18;;;;;;;;;;;8.60;99.90;;;7.73;100.00;95830.50;10586504;27;2059;-77
2022/12/24 17:36:22;;;;;;;;;;;8.70;99.90;;;7.69;100.00;95833.91;10582946;27;2061;-77
2022/12/24 17:41:28;;;;;;;;;;;8.60;99.90;;;7.76;100.00;95842.53;10571749;27;1980;-76
2022/12/24 17:46:39;;;;;;;;;;;8.60;99.90;;;7.77;100.00;95852.22;10587210;27;2055;-77
2022/12/24 17:51:47;;;;;;;;;;;8.60;99.90;;;7.81;100.00;95842.59;10575281;27;1942;-79
2022/12/24 17:56:54;;;;;;;;;;;8.60;99.90;;;7.82;100.00;95834.34;10577170;27;1985;-77
2022/12/24 18:01:58;;;;;;;;;;;8.70;99.90;;;7.80;100.00;95830.28;10544725;28;2053;-77
2022/12/24 18:07:02;;;;;;;;;;;8.80;99.90;;;7.78;100.00;95840.44;10587216;27;2019;-77
2022/12/24 18:12:05;;;;;;;;;;;8.60;99.90;;;7.81;100.00;95842.59;10555920;27;1933;-77
2022/12/24 18:17:09;;;;;;;;;;;8.70;99.90;;;7.75;100.00;95843.59;10570733;27;2125;-77
2022/12/24 18:22:14;;;;;;;;;;;8.70;99.90;;;7.76;100.00;95850.56;10578635;27;1939;-77
2022/12/24 18:27:19;;;;;;;;;;;8.60;99.90;;;7.81;100.00;95853.28;10590927;27;5027;-75
2022/12/24 18:32:25;;;;;;;;;;;8.80;99.90;;;7.78;100.00;95859.16;10570615;27;2121;-76
2022/12/24 18:37:31;;;;;;;;;;;8.60;99.90;;;7.81;100.00;95862.13;10577914;27;2035;-75
2022/12/24 18:42:38;;;;;;;;;;;8.70;99.90;;;7.77;100.00;95861.03;10550411;27;2114;-76
2022/12/24 18:47:52;;;;;;;;;;;8.70;99.90;;;7.81;100.00;95847.94;10554864;27;2028;-76
2022/12/24 18:52:57;;;;;;;;;;;8.70;99.90;;;7.75;100.00;95854.31;10580585;27;1989;-76
2022/12/24 18:58:16;;;;;;;;;;;8.70;99.90;;;7.69;100.00;95860.66;10585874;27;1992;-76
2022/12/24 19:03:28;;;;;;;;;;;8.70;99.90;;;7.69;100.00;95858.00;10592719;27;2037;-77
2022/12/24 19:08:32;;;;;;;;;;;8.60;99.90;;;7.67;100.00;95868.16;10562624;28;2183;-78
2022/12/24 19:14:00;;;;;;;;;;;9.30;99.90;;;7.71;100.00;95874.63;10569202;28;1979;-77
2022/12/24 19:19:04;;;;;;;;;;;8.60;99.90;;;7.65;100.00;95881.78;10577742;27;2045;-77
2022/12/24 19:24:09;;;;;;;;;;;8.60;99.90;;;7.59;100.00;95888.94;10573370;27;1894;-77
2022/12/24 19:29:16;;;;;;;;;;;8.60;99.90;;;7.65;100.00;95891.69;10557359;28;5046;-76
2022/12/24 19:34:22;;;;;;;;;;;8.60;99.90;;;7.64;100.00;95884.72;10548896;27;1972;-78
2022/12/24 19:39:26;;;;;;;;;;;8.60;99.90;;;7.64;100.00;95879.38;10552792;27;2078;-76
2022/12/24 19:44:34;;;;;;;;;;;8.50;99.90;;;7.66;100.00;95894.09;10590633;27;1913;-76
2022/12/24 19:49:39;;;;;;;;;;;8.60;99.90;;;7.65;100.00;95892.50;10551177;27;1772;-75
2022/12/24 19:54:42;;;;;;;;;;;8.60;99.90;;;7.64;100.00;95898.09;10580306;27;1980;-77
2022/12/24 19:59:46;;;;;;;;;;;8.50;99.90;;;7.65;100.00;95891.69;10574336;27;1993;-76
2022/12/24 20:04:50;;;;;;;;;;;8.50;99.90;;;7.61;100.00;95882.53;10553358;27;1881;-77
2022/12/24 20:10:02;;;;;;;;;;;8.50;99.90;;;7.60;100.00;95865.69;10560720;27;1850;-76
2022/12/24 20:15:08;;;;;;;;;;;8.50;99.90;;;7.56;100.00;95867.22;10549191;28;1983;-77
2022/12/24 20:20:14;;;;;;;;;;;8.50;99.90;;;7.50;100.00;95879.75;10559932;27;1993;-76
2022/12/24 20:25:18;;;;;;;;;;;8.50;99.90;;;7.55;100.00;95876.31;10574712;27;1922;-77
2022/12/24 20:30:22;;;;;;;;;;;8.40;99.90;;;7.61;100.00;95885.22;10569341;27;5069;-77
2022/12/24 20:35:28;;;;;;;;;;;8.40;99.90;;;7.57;100.00;95896.44;10569955;27;2230;-76
2022/12/24 20:40:34;;;;;;;;;;;8.50;99.90;;;7.54;100.00;95904.94;10579383;27;1910;-76
2022/12/24 20:45:38;;;;;;;;;;;8.50;99.90;;;7.56;100.00;95899.34;10547604;28;2074;-77
2022/12/24 20:50:49;;;;;;;;;;;8.50;99.90;;;7.62;100.00;95905.53;10574226;27;1968;-76
2022/12/24 20:55:55;;;;;;;;;;;8.50;99.90;;;7.54;100.00;95896.91;10569382;28;1984;-76
2022/12/24 21:01:00;;;;;;;;;;;8.50;99.90;;;7.58;100.00;95905.25;10556084;28;2014;-76
2022/12/24 21:06:07;;;;;;;;;;;8.40;99.90;;;7.58;100.00;95900.72;10569274;28;1901;-78
2022/12/24 21:16:33;;;;;;;;;;;8.40;99.90;;;7.54;100.00;95907.63;10558178;28;1902;-77
2022/12/24 21:21:37;;;;;;;;;;;8.40;99.90;;;7.56;100.00;95913.50;10546628;28;2033;-76
2022/12/24 21:26:44;;;;;;;;;;;8.40;99.90;;;7.61;100.00;95901.25;10570955;28;5064;-77
2022/12/24 21:31:48;;;;;;;;;;;8.40;99.90;;;7.56;100.00;95892.13;10563369;28;2001;-77
2022/12/24 21:36:53;;;;;;;;;;;8.50;99.90;;;7.59;100.00;95913.03;10562329;28;1946;-76
2022/12/24 21:42:04;;;;;;;;;;;8.50;99.90;;;7.55;100.00;95914.56;10569384;28;1969;-77
2022/12/24 21:47:14;;;;;;;;;;;8.40;99.90;;;7.56;100.00;95923.41;10570101;28;1928;-76
2022/12/24 21:52:18;;;;;;;;;;;8.40;99.90;;;7.52;100.00;95920.44;10555390;28;1938;-75
2022/12/24 22:02:43;;;;;;;;;;;8.40;99.90;;;7.52;100.00;95931.13;10561518;28;1917;-76
2022/12/24 22:13:18;;;;;;;;;;;8.40;99.90;;;7.57;100.00;95925.84;10554694;27;1957;-75
2022/12/24 22:18:22;;;;;;;;;;;8.50;99.90;;;7.62;100.00;95924.28;10547569;27;1914;-76
2022/12/24 22:23:30;;;;;;;;;;;8.50;99.90;;;7.59;100.00;95923.72;10535950;27;1852;-76
2022/12/24 22:28:45;;;;;;;;;;;8.50;99.90;;;7.61;100.00;95928.00;10571526;27;4965;-76
2022/12/24 22:33:50;;;;;;;;;;;8.40;99.90;;;7.42;100.00;95924.84;10588170;27;1983;-75
2022/12/24 22:38:53;;;;;;;;;;;8.40;99.90;;;7.39;100.00;95926.19;10563797;27;1922;-76
2022/12/24 22:43:59;;;;;;;;;;;8.50;99.90;;;7.43;100.00;95932.63;10561214;27;2099;-76
2022/12/24 22:49:04;;;;;;;;;;;8.30;99.90;;;7.45;100.00;95935.88;10572236;27;1925;-77
2022/12/24 22:54:07;;;;;;;;;;;8.30;99.90;;;7.49;100.00;95947.69;10562360;27;2035;-77
2022/12/24 22:59:12;;;;;;;;;;;8.40;99.90;;;7.48;100.00;95956.75;10552128;28;1958;-76
2022/12/24 23:04:16;;;;;;;;;;;8.30;99.90;;;7.52;100.00;95957.88;10565788;27;1914;-76
2022/12/24 23:09:21;;;;;;;;;;;8.30;99.90;;;7.53;100.00;95953.34;10564180;27;1984;-77
2022/12/24 23:19:44;;;;;;;;;;;8.40;99.90;;;7.42;100.00;95955.09;10548817;27;1958;-76
2022/12/24 23:24:49;;;;;;;;;;;8.40;99.90;;;7.32;100.00;95963.00;10573162;27;2096;-76
2022/12/24 23:30:03;;;;;;;;;;;8.20;99.90;;;7.26;100.00;95966.66;10566458;27;5093;-75
2022/12/24 23:35:08;;;;;;;;;;;8.20;99.90;;;7.22;100.00;95962.84;10565150;27;2105;-76
2022/12/24 23:40:11;;;;;;;;;;;8.10;99.90;;;7.25;100.00;95963.19;10577094;27;1970;-76
2022/12/24 23:45:15;;;;;;;;;;;8.00;99.90;;;7.21;100.00;95971.94;10562163;27;1906;-76
2022/12/24 23:50:20;;;;;;;;;;;8.20;99.90;;;7.22;100.00;95957.50;10563980;27;2141;-77
2022/12/24 23:55:27;;;;;;;;;;;8.10;99.90;;;7.20;100.00;95949.75;10565676;27;2110;-78
